Terminal Aerodrome Forecast
Issued by NWS Sioux Falls, SD

Home | Current Version | Previous Version | Text Only | Print | Product List | Glossary Off
Versions: 1 2 3 4 5 6 7 8 9 10 11 12 13 14 15 16 17 18 19 20 21 22 23 24 25 26 27 28

543
FTUS43 KFSD 241120
TAFSUX
TAF
KSUX 241120Z 2412/2512 36024G32KT 1SM -SN BLSN SCT010 OVC015
     FM241400 35023G33KT 1/2SM SN BLSN OVC015
     FM241800 35021G31KT 1SM -SN BLSN OVC008
     FM242100 34022G30KT 4SM BLSN VCSH OVC015
     FM242300 34018G26KT P6SM OVC050
     FM250000 34016G24KT P6SM BKN090
     FM251100 31009KT P6SM SCT150=

USA.gov is the U.S. government's official web portal to all federal, state and local government web resources and services.